Accueil
METAR-TAF:

METAR-TAF

Aéroports :

Bergame, Italie

Aéroport de Bergame-Orio al Serio

latitude: 45-40N, longitude: 009-42E, altitude: 238 m

Observation

Le bulletin a été fait il y a 24 minutes, à 03:20 UTC
Vent 2 kt de direction variable
Température 0°C
Humidité 100%
Pression 1001 hPa
Visibilité: 2000 m
Nuages fragmentés à une hauteur de 200 ft
Nuages fragmentés à une hauteur de 3000 ft
brume

METAR: LIME 110320Z VRB02KT 2000 BR BKN002 BKN030 00/M00 Q1001 REFZRA NOSIG

Heure: 04:44 (03:44 UTC)

Prévision

Le bulletin a été fait il y a 4 heures et 44 minutes, à 23:00 UTC
Prévision valable du 11 à 00 UTC au 11 à 24 UTC
Vent 5 kt de direction variable
Visibilité: 1500 m
Nuages fragmentés à une hauteur de 1000 ft
Nuages fragmentés à une hauteur de 4000 ft
neige
Evoluant progressivement
du 11 à 10 UTC au 11 à 12 UTC
Visibilité: 5000 m
pluie

TAF: LIME 102300Z 1100/1124 VRB05KT 1500 SN BKN010 BKN040 BECMG 1110/1112 5000 RA

Observations et prévisions météorologiques de plus de 4000 aéroports (messages METAR et TAF).

Les stations disponibles sont représentées par des disques jaunes et rouges sur la carte.

Passer la souris dessus pour voir le nom de la station.

Cliquer dessus pour voir les observations et prévisions météorologiques.

Pour changer de carte: cliquez sur les boutons verts avec une croix noire pour zoomer, sur le bouton vert avec un tiret pour effectuer un zoom arrière, ou sur les flèches vertes pour les cartes adjacentes.


METAR-TAF: